Time;durP1;ratioP1;P1;durP2;ratioP2;P2;SDS_P1;SDS_P2;PMS_P1;PMS_P2;Temp;Humidity;BMP_temperature;BMP_pressure;BME280_temperature;BME280_humidity;BME280_pressure;Samples;Min_cycle;Max_cycle;Signal;HPM_P1;HPM_P2
2022/09/16 00:00:41;;;;;;;4.40;3.97;;;19.70;79.40;;;-142.21;100.00;112049.66;5134880;27;20453;-79
2022/09/16 00:03:08;;;;;;;6.50;4.07;;;19.80;80.40;;;-142.21;100.00;112049.66;5115981;27;20202;-78
2022/09/16 00:05:41;;;;;;;4.77;4.20;;;19.70;79.60;;;-142.21;100.00;112049.66;5134820;27;20445;-79
2022/09/16 00:08:08;;;;;;;7.00;3.80;;;19.70;79.80;;;-142.21;100.00;112049.66;5134399;27;20198;-79
2022/09/16 00:10:36;;;;;;;4.63;4.20;;;19.70;79.70;;;-142.21;100.00;112049.66;5134700;27;20198;-78
2022/09/16 00:13:04;;;;;;;7.53;4.20;;;19.70;80.30;;;-142.21;100.00;112049.66;5133520;27;20492;-78
2022/09/16 00:15:33;;;;;;;5.37;3.93;;;19.70;80.00;;;-142.21;100.00;112049.66;5134309;27;20301;-79
2022/09/16 00:18:00;;;;;;;6.60;3.67;;;19.70;79.80;;;-142.21;100.00;112049.66;5134064;27;20452;-79
2022/09/16 00:20:28;;;;;;;6.50;3.87;;;19.50;80.10;;;-142.21;100.00;112049.66;5116562;27;20195;-78
2022/09/16 00:22:55;;;;;;;6.80;3.60;;;19.50;80.50;;;-142.21;100.00;112049.66;5134189;27;20510;-78
2022/09/16 00:25:22;;;;;;;4.33;3.90;;;19.50;80.70;;;-142.21;100.00;112049.66;5135534;27;20195;-79
2022/09/16 00:27:50;;;;;;;7.87;3.90;;;19.40;80.70;;;-142.21;100.00;112049.66;5135197;27;20235;-79
2022/09/16 00:30:17;;;;;;;4.37;3.97;;;19.40;80.70;;;-142.21;100.00;112049.66;5134067;27;20603;-79
2022/09/16 00:32:46;;;;;;;4.13;3.73;;;19.50;80.50;;;-142.21;100.00;112049.66;5133776;27;20231;-78
2022/09/16 00:35:13;;;;;;;5.50;3.63;;;19.50;80.40;;;-142.21;100.00;112049.66;5133238;27;20191;-80
2022/09/16 00:37:40;;;;;;;7.67;3.67;;;19.50;80.10;;;-142.21;100.00;112049.66;5133847;27;20282;-79
2022/09/16 00:40:09;;;;;;;5.67;3.60;;;19.50;80.10;;;-142.21;100.00;112049.66;5133507;27;20222;-79
2022/09/16 00:42:43;;;;;;;7.87;4.00;;;19.50;80.10;;;-142.21;100.00;112049.66;5134002;27;20191;-79
2022/09/16 00:45:18;;;;;;;3.87;3.57;;;19.50;80.20;;;-142.21;100.00;112049.66;5124873;27;20437;-80
2022/09/16 00:47:53;;;;;;;5.33;4.20;;;19.50;80.10;;;-142.21;100.00;112049.66;5133609;27;20266;-79
2022/09/16 00:50:35;;;;;;;4.43;3.90;;;19.50;80.10;;;-142.21;100.00;112049.66;5133197;27;20187;-79
2022/09/16 00:53:02;;;;;;;4.67;4.00;;;19.50;80.20;;;-142.21;100.00;112049.66;5133656;27;20815;-78
2022/09/16 00:55:37;;;;;;;5.73;4.00;;;19.40;80.30;;;-142.21;100.00;112049.66;5115302;27;20884;-79
2022/09/16 00:58:14;;;;;;;6.20;3.77;;;19.50;80.50;;;-142.21;100.00;112049.66;5080356;27;20297;-78
2022/09/16 01:00:42;;;;;;;5.80;4.13;;;19.40;80.50;;;-142.21;100.00;112049.66;5133497;27;21027;-79
2022/09/16 01:03:11;;;;;;;4.60;3.90;;;19.40;80.40;;;-142.21;100.00;112049.66;5133196;27;20277;-78
2022/09/16 01:05:39;;;;;;;5.80;4.20;;;19.50;80.70;;;-142.21;100.00;112049.66;5133228;27;20199;-79
2022/09/16 01:08:07;;;;;;;7.83;4.10;;;19.40;80.70;;;-142.21;100.00;112049.66;5128210;27;20451;-79
2022/09/16 01:10:36;;;;;;;6.43;4.20;;;19.40;80.70;;;-142.21;100.00;112049.66;5133153;27;20203;-78
2022/09/16 01:13:08;;;;;;;5.83;3.87;;;19.40;80.60;;;-142.21;100.00;112049.66;5132558;27;20222;-80
2022/09/16 01:15:47;;;;;;;4.47;3.83;;;19.40;80.80;;;-142.21;100.00;112049.66;5132982;27;20277;-79
2022/09/16 01:18:26;;;;;;;4.80;4.00;;;19.40;80.80;;;-142.21;100.00;112049.66;5132956;27;20432;-79
2022/09/16 01:21:30;;;;;;;6.80;3.80;;;19.40;80.90;;;-142.21;100.00;112049.66;5133577;27;20483;-79
2022/09/16 01:25:00;;;;;;;6.13;3.90;;;19.40;81.00;;;-142.21;100.00;112049.66;5132729;27;20202;-80
2022/09/16 01:28:11;;;;;;;4.80;3.60;;;19.40;81.00;;;-142.21;100.00;112049.66;5069426;28;20461;-79
2022/09/16 01:30:56;;;;;;;4.23;3.83;;;19.40;80.80;;;-142.21;100.00;112049.66;5069468;28;20201;-80
2022/09/16 01:33:41;;;;;;;5.07;3.93;;;19.40;81.00;;;-142.21;100.00;112049.66;5115448;27;20215;-80
2022/09/16 01:36:26;;;;;;;6.43;4.13;;;19.30;80.80;;;-142.21;100.00;112049.66;5132189;27;20290;-79
2022/09/16 01:39:21;;;;;;;6.17;3.87;;;19.30;80.90;;;-142.21;100.00;112049.66;5113976;27;20543;-79
2022/09/16 01:42:05;;;;;;;6.97;3.77;;;19.10;81.40;;;-142.21;100.00;112049.66;5082221;27;20205;-80
2022/09/16 01:44:46;;;;;;;6.70;4.20;;;19.00;81.90;;;-142.21;100.00;112049.66;5132722;27;20199;-79
2022/09/16 01:47:22;;;;;;;5.77;4.37;;;19.00;82.00;;;-142.21;100.00;112049.66;5131936;27;20440;-80
2022/09/16 01:50:03;;;;;;;5.17;4.20;;;18.90;82.00;;;-142.21;100.00;112049.66;5112742;28;20430;-80
2022/09/16 01:52:45;;;;;;;6.13;3.57;;;18.90;82.00;;;-142.21;100.00;112049.66;5131980;27;20478;-80
2022/09/16 01:55:22;;;;;;;6.03;3.80;;;18.90;81.90;;;-142.21;100.00;112049.66;5114771;28;20531;-80
2022/09/16 01:57:57;;;;;;;4.80;4.20;;;18.90;81.60;;;-142.21;100.00;112049.66;5132421;28;20441;-80
2022/09/16 02:00:24;;;;;;;7.30;4.10;;;18.90;81.60;;;-142.21;100.00;112049.66;5123551;28;20497;-80
2022/09/16 02:03:02;;;;;;;4.60;4.13;;;18.90;81.60;;;-142.21;100.00;112049.66;5132798;28;20456;-80
2022/09/16 02:05:37;;;;;;;7.00;3.90;;;18.90;81.50;;;-142.21;100.00;112049.66;5099630;28;20455;-80
2022/09/16 02:08:11;;;;;;;6.13;4.50;;;18.90;81.40;;;-142.21;100.00;112049.66;5117494;28;20433;-79
2022/09/16 02:10:45;;;;;;;6.57;4.00;;;18.90;81.40;;;-142.21;100.00;112049.66;5132591;28;20439;-79
2022/09/16 02:13:21;;;;;;;5.50;4.30;;;18.90;81.50;;;-142.21;100.00;112049.66;5132108;28;20468;-78
2022/09/16 02:15:53;;;;;;;8.73;4.57;;;18.90;81.70;;;-142.21;100.00;112049.66;5115268;28;20436;-79
2022/09/16 02:18:29;;;;;;;6.67;4.10;;;18.90;81.60;;;-142.21;100.00;112049.66;5134392;27;20925;-78
2022/09/16 02:21:01;;;;;;;5.67;3.93;;;18.90;81.60;;;-142.21;100.00;112049.66;5136575;27;20437;-80
2022/09/16 02:23:38;;;;;;;4.23;3.67;;;18.90;81.70;;;-142.21;100.00;112049.66;5136632;27;20787;-79
2022/09/16 02:26:08;;;;;;;5.43;4.20;;;18.90;81.80;;;-142.21;100.00;112049.66;5135174;27;20428;-79
2022/09/16 02:28:42;;;;;;;7.77;4.37;;;18.90;81.90;;;-142.21;100.00;112049.66;5118613;27;20207;-79
2022/09/16 02:31:13;;;;;;;5.07;4.57;;;19.00;81.70;;;-142.21;100.00;112049.66;5135758;27;20863;-78
2022/09/16 02:33:50;;;;;;;10.63;4.10;;;19.00;81.90;;;-142.21;100.00;112049.66;5136829;27;20465;-79
2022/09/16 02:36:23;;;;;;;4.60;4.00;;;19.00;82.10;;;-142.21;100.00;112049.66;5135625;27;20446;-78
2022/09/16 02:39:00;;;;;;;5.53;4.30;;;19.00;82.70;;;-142.21;100.00;112049.66;5136334;27;20440;-77
2022/09/16 02:41:27;;;;;;;4.50;3.70;;;19.00;81.90;;;-142.21;100.00;112049.66;5091598;28;20518;-79
2022/09/16 02:43:54;;;;;;;6.80;3.87;;;19.00;82.10;;;-142.21;100.00;112049.66;5130407;27;20789;-79
2022/09/16 02:46:33;;;;;;;7.47;3.90;;;19.00;82.10;;;-142.21;100.00;112049.66;5135270;27;20451;-78
2022/09/16 02:49:13;;;;;;;4.07;3.67;;;19.00;82.10;;;-142.21;100.00;112049.66;5136531;27;20531;-79
2022/09/16 02:51:56;;;;;;;5.03;4.10;;;19.10;82.90;;;-142.21;100.00;112049.66;5100470;27;20452;-79
2022/09/16 02:54:32;;;;;;;4.30;3.90;;;19.00;82.10;;;-142.21;100.00;112049.66;5135334;27;21059;-78
2022/09/16 02:57:00;;;;;;;7.27;4.00;;;19.10;82.20;;;-142.21;100.00;112049.66;5135788;27;20439;-78
2022/09/16 02:59:27;;;;;;;5.37;4.50;;;19.00;82.10;;;-142.21;100.00;112049.66;5135799;27;20535;-78
2022/09/16 03:01:55;;;;;;;4.27;3.87;;;19.10;82.10;;;-142.21;100.00;112049.66;5083203;27;20457;-78
2022/09/16 03:04:24;;;;;;;7.60;4.43;;;19.10;82.20;;;-142.21;100.00;112049.66;5135881;27;20444;-78
2022/09/16 03:06:51;;;;;;;7.03;4.23;;;19.00;81.90;;;-142.21;100.00;112049.66;5135297;27;20955;-79
2022/09/16 03:09:22;;;;;;;11.13;4.63;;;19.00;81.60;;;-142.21;100.00;112049.66;5134785;27;20441;-78
2022/09/16 03:12:17;;;;;;;6.17;3.93;;;19.00;81.60;;;-142.21;100.00;112049.66;5117849;27;20448;-78
2022/09/16 03:15:33;;;;;;;4.53;4.13;;;19.00;82.10;;;-142.21;100.00;112049.66;5080991;28;20489;-78
2022/09/16 03:18:57;;;;;;;6.00;4.37;;;19.00;82.90;;;-142.21;100.00;112049.66;5124513;27;20449;-78
2022/09/16 03:21:40;;;;;;;7.80;4.23;;;19.00;82.10;;;-142.21;100.00;112049.66;5071028;28;20439;-78
2022/09/16 03:24:17;;;;;;;5.70;4.20;;;19.00;82.10;;;-142.21;100.00;112049.66;5122169;27;20274;-78
2022/09/16 03:26:53;;;;;;;4.30;3.90;;;19.00;82.10;;;-142.21;100.00;112049.66;5113389;28;20941;-78
2022/09/16 03:29:32;;;;;;;5.13;3.43;;;19.10;82.20;;;-142.21;100.00;112049.66;5120809;27;20776;-77
2022/09/16 03:32:10;;;;;;;7.70;4.30;;;19.10;82.20;;;-142.21;100.00;112049.66;5134988;27;20480;-78
2022/09/16 03:34:44;;;;;;;5.37;3.70;;;19.00;82.10;;;-142.21;100.00;112049.66;5113634;28;20469;-78
2022/09/16 03:37:19;;;;;;;4.47;3.70;;;19.00;82.10;;;-142.21;100.00;112049.66;5132024;27;20441;-78
2022/09/16 03:39:52;;;;;;;7.97;3.87;;;19.00;82.10;;;-142.21;100.00;112049.66;5135480;27;20437;-79
2022/09/16 03:42:21;;;;;;;6.17;3.50;;;19.00;82.20;;;-142.21;100.00;112049.66;5134716;27;20441;-78
2022/09/16 03:44:48;;;;;;;6.03;3.73;;;19.00;82.10;;;-142.21;100.00;112049.66;5135358;27;20455;-78
2022/09/16 03:47:17;;;;;;;3.67;3.37;;;19.00;82.10;;;-142.21;100.00;112049.66;5134112;27;20536;-78
2022/09/16 03:49:44;;;;;;;5.10;3.90;;;19.00;82.10;;;-142.21;100.00;112049.66;5135154;27;20440;-78
2022/09/16 03:52:13;;;;;;;4.57;4.17;;;19.00;82.10;;;-142.21;100.00;112049.66;5133933;27;20937;-79
2022/09/16 03:54:40;;;;;;;12.03;4.43;;;19.00;82.20;;;-142.21;100.00;112049.66;5135131;27;20826;-79
2022/09/16 03:57:07;;;;;;;6.50;4.37;;;19.10;82.30;;;-142.21;100.00;112049.66;5135160;27;20449;-78
2022/09/16 03:59:34;;;;;;;5.47;4.03;;;19.00;83.10;;;-142.21;100.00;112049.66;5135336;27;20797;-79
2022/09/16 04:02:01;;;;;;;4.30;3.90;;;19.00;82.30;;;-142.21;100.00;112049.66;5135244;27;20802;-78
2022/09/16 04:04:28;;;;;;;4.83;4.20;;;19.10;82.40;;;-142.21;100.00;112049.66;5081501;27;20447;-78
2022/09/16 04:06:56;;;;;;;4.50;4.10;;;19.10;82.70;;;-142.21;100.00;112049.66;5134847;27;20446;-80
2022/09/16 04:09:26;;;;;;;4.80;4.30;;;19.10;83.40;;;-142.21;100.00;112049.66;5134493;27;20448;-78
2022/09/16 04:11:53;;;;;;;5.33;3.80;;;19.00;82.80;;;-142.21;100.00;112049.66;5134406;27;20533;-79
2022/09/16 04:14:20;;;;;;;6.57;4.20;;;19.10;82.80;;;-142.21;100.00;112049.66;5133845;27;20489;-80
2022/09/16 04:16:47;;;;;;;7.93;4.23;;;19.00;82.90;;;-142.21;100.00;112049.66;5134654;27;20929;-79
2022/09/16 04:19:14;;;;;;;4.57;3.63;;;19.00;83.00;;;-142.21;100.00;112049.66;5116002;27;20474;-78
2022/09/16 04:21:42;;;;;;;4.27;3.80;;;19.10;83.30;;;-142.21;100.00;112049.66;5134128;27;20444;-79
2022/09/16 04:24:09;;;;;;;4.83;4.30;;;19.10;83.50;;;-142.21;100.00;112049.66;5133499;27;20539;-78
2022/09/16 04:26:38;;;;;;;6.67;4.30;;;19.00;83.30;;;-142.21;100.00;112049.66;5133992;27;20479;-79
2022/09/16 04:29:05;;;;;;;6.17;3.97;;;19.10;83.40;;;-142.21;100.00;112049.66;5134718;27;20210;-80
2022/09/16 04:31:32;;;;;;;4.70;4.30;;;19.10;83.40;;;-142.21;100.00;112049.66;5132765;27;20503;-80
2022/09/16 04:34:01;;;;;;;6.03;4.90;;;19.10;83.30;;;-142.21;100.00;112049.66;5134072;27;20480;-80
2022/09/16 04:36:32;;;;;;;7.37;4.70;;;19.10;83.40;;;-142.21;100.00;112049.66;5133263;27;20452;-78
2022/09/16 04:38:59;;;;;;;7.17;4.63;;;19.10;83.50;;;-142.21;100.00;112049.66;5121293;27;20437;-78
2022/09/16 04:41:27;;;;;;;7.10;4.70;;;19.00;83.60;;;-142.21;100.00;112049.66;5128683;27;20440;-75
2022/09/16 04:43:58;;;;;;;6.80;4.73;;;19.00;83.50;;;-142.21;100.00;112049.66;5133612;27;20544;-75
2022/09/16 04:46:28;;;;;;;7.63;4.77;;;19.10;83.80;;;-142.21;100.00;112049.66;5133010;27;20436;-76
2022/09/16 04:48:57;;;;;;;8.13;4.43;;;19.10;83.70;;;-142.21;100.00;112049.66;5133046;27;20516;-77
2022/09/16 04:51:26;;;;;;;6.30;4.50;;;19.00;83.60;;;-142.21;100.00;112049.66;5132441;27;20489;-75
2022/09/16 04:53:54;;;;;;;6.63;4.40;;;19.00;83.40;;;-142.21;100.00;112049.66;5133435;27;20519;-78
2022/09/16 04:56:24;;;;;;;4.43;4.00;;;19.10;83.30;;;-142.21;100.00;112049.66;5132275;27;20440;-76
2022/09/16 04:58:54;;;;;;;5.60;3.93;;;19.10;82.20;;;-142.21;100.00;112049.66;5133237;27;20532;-76
2022/09/16 05:01:25;;;;;;;7.60;4.03;;;19.00;82.00;;;-142.21;100.00;112049.66;5132981;27;20556;-76
2022/09/16 05:03:55;;;;;;;6.40;3.97;;;19.10;81.60;;;-142.21;100.00;112049.66;5133606;27;20478;-75
2022/09/16 05:06:26;;;;;;;5.80;3.80;;;19.00;81.20;;;-142.21;100.00;112049.66;5132321;27;20475;-74
2022/09/16 05:08:55;;;;;;;4.10;3.70;;;19.10;81.00;;;-142.21;100.00;112049.66;5132736;27;20471;-79
2022/09/16 05:11:26;;;;;;;4.13;3.30;;;19.00;80.30;;;-142.21;100.00;112049.66;5132536;27;20195;-79
2022/09/16 05:13:57;;;;;;;3.67;3.30;;;19.00;79.50;;;-142.21;100.00;112049.66;5133480;27;20219;-79
2022/09/16 05:16:26;;;;;;;4.43;3.30;;;18.90;79.00;;;-142.21;100.00;112049.66;5132632;27;20460;-80
2022/09/16 05:18:56;;;;;;;3.93;3.00;;;18.90;78.80;;;-142.21;100.00;112049.66;5133142;27;20532;-87
2022/09/16 05:21:26;;;;;;;7.40;3.17;;;18.90;78.80;;;-142.21;100.00;112049.66;5116030;27;20877;-78
2022/09/16 05:23:54;;;;;;;3.30;2.80;;;18.90;78.60;;;-142.21;100.00;112049.66;5133522;27;20521;-77
2022/09/16 05:26:25;;;;;;;6.17;3.10;;;18.90;78.90;;;-142.21;100.00;112049.66;5132786;27;20516;-77
2022/09/16 05:28:53;;;;;;;3.53;3.13;;;18.90;79.10;;;-142.21;100.00;112049.66;5132080;27;20477;-77
2022/09/16 05:31:25;;;;;;;5.43;3.40;;;18.80;79.80;;;-142.21;100.00;112049.66;5131706;27;20499;-77
2022/09/16 05:33:58;;;;;;;4.37;3.07;;;18.80;79.20;;;-142.21;100.00;112049.66;5131438;27;20440;-78
2022/09/16 05:36:27;;;;;;;4.30;3.50;;;18.80;79.20;;;-142.21;100.00;112049.66;5131760;27;20497;-77
2022/09/16 05:38:55;;;;;;;5.67;3.30;;;18.80;80.00;;;-142.21;100.00;112049.66;5133043;27;20453;-79
2022/09/16 05:41:22;;;;;;;5.83;3.30;;;18.80;79.30;;;-142.21;100.00;112049.66;5132380;27;20449;-77
2022/09/16 05:43:49;;;;;;;6.27;3.47;;;18.70;78.90;;;-142.21;100.00;112049.66;5132799;27;20444;-77
2022/09/16 05:46:21;;;;;;;4.63;3.10;;;18.70;78.70;;;-142.21;100.00;112049.66;5132038;27;20475;-78
2022/09/16 05:48:49;;;;;;;4.93;3.57;;;18.70;79.00;;;-142.21;100.00;112049.66;5133108;27;20507;-76
2022/09/16 05:51:22;;;;;;;4.80;2.97;;;18.60;78.90;;;-142.21;100.00;112049.66;5132306;27;20437;-76
2022/09/16 05:53:52;;;;;;;4.37;3.37;;;18.70;78.80;;;-142.21;100.00;112049.66;5132191;27;20437;-77
2022/09/16 05:56:24;;;;;;;5.00;3.47;;;18.70;79.10;;;-142.21;100.00;112049.66;5132251;27;20478;-78
2022/09/16 05:58:53;;;;;;;4.50;3.50;;;18.70;79.10;;;-142.21;100.00;112049.66;5136374;27;20440;-76
2022/09/16 06:01:22;;;;;;;4.40;3.50;;;18.70;79.50;;;-142.21;100.00;112049.66;5152691;27;20859;-76
2022/09/16 06:03:52;;;;;;;3.30;2.87;;;18.70;79.10;;;-142.21;100.00;112049.66;5153668;27;20448;-75
2022/09/16 06:06:25;;;;;;;5.90;3.70;;;18.70;79.10;;;-142.21;100.00;112049.66;5153236;27;21139;-76
2022/09/16 06:08:54;;;;;;;4.50;3.43;;;18.70;79.40;;;-142.21;100.00;112049.66;5153509;27;20419;-77
2022/09/16 06:11:22;;;;;;;5.73;3.20;;;18.70;79.50;;;-142.21;100.00;112049.66;5153184;27;20214;-78
2022/09/16 06:13:55;;;;;;;5.63;3.30;;;18.70;79.60;;;-142.21;100.00;112049.66;5137327;27;20509;-78
2022/09/16 06:16:24;;;;;;;4.20;3.37;;;18.60;79.60;;;-142.21;100.00;112049.66;5132453;28;20516;-78
2022/09/16 06:18:52;;;;;;;3.83;3.10;;;18.60;79.60;;;-142.21;100.00;112049.66;5132398;28;20988;-77
2022/09/16 06:21:22;;;;;;;3.67;3.23;;;18.60;79.70;;;-142.21;100.00;112049.66;5131992;28;20453;-76
2022/09/16 06:23:49;;;;;;;6.20;3.30;;;18.60;79.30;;;-142.21;100.00;112049.66;5132620;28;20429;-80
2022/09/16 06:26:19;;;;;;;4.00;3.00;;;18.60;79.30;;;-142.21;100.00;112049.66;5132159;28;20854;-80
2022/09/16 06:28:48;;;;;;;4.40;2.47;;;18.60;78.00;;;-142.21;100.00;112049.66;5132497;28;20452;-80
2022/09/16 06:31:17;;;;;;;4.30;2.77;;;18.60;76.40;;;-142.21;100.00;112049.66;5131862;28;20545;-80
2022/09/16 06:33:45;;;;;;;3.67;3.37;;;18.50;77.60;;;-142.21;100.00;112049.66;5132712;28;20452;-79
2022/09/16 06:36:16;;;;;;;4.53;3.37;;;18.40;78.20;;;-142.21;100.00;112049.66;5132619;28;20875;-78
2022/09/16 06:38:46;;;;;;;3.63;3.20;;;18.30;79.40;;;-142.21;100.00;112049.66;5132766;28;20425;-80
2022/09/16 06:41:16;;;;;;;5.40;3.60;;;18.30;79.60;;;-142.21;100.00;112049.66;5132330;28;20472;-79
2022/09/16 06:43:44;;;;;;;5.87;3.40;;;18.40;80.40;;;-142.21;100.00;112049.66;5132443;28;20447;-79
2022/09/16 06:46:15;;;;;;;4.80;3.00;;;18.40;79.60;;;-142.21;100.00;112049.66;5132621;28;20457;-79
2022/09/16 06:48:43;;;;;;;4.73;2.97;;;18.40;79.20;;;-142.21;100.00;112049.66;5131804;28;21011;-79
2022/09/16 06:51:13;;;;;;;3.73;3.20;;;18.40;79.60;;;-142.21;100.00;112049.66;5131827;28;20864;-76
2022/09/16 06:53:41;;;;;;;3.63;3.30;;;18.40;79.30;;;-142.21;100.00;112049.66;5125874;28;20531;-80
2022/09/16 06:56:14;;;;;;;5.50;3.37;;;18.40;79.10;;;-142.21;100.00;112049.66;5132476;28;20571;-81
2022/09/16 06:58:43;;;;;;;3.90;3.53;;;18.40;79.00;;;-142.21;100.00;112049.66;5131209;28;20506;-77
2022/09/16 07:01:13;;;;;;;5.17;3.30;;;18.40;78.80;;;-142.21;100.00;112049.66;5131752;28;20472;-80
2022/09/16 07:03:43;;;;;;;3.90;3.27;;;18.40;79.20;;;-142.21;100.00;112049.66;5131922;27;20851;-80
2022/09/16 07:06:12;;;;;;;8.83;3.23;;;18.40;78.90;;;-142.21;100.00;112049.66;5135840;27;20436;-80
2022/09/16 07:08:41;;;;;;;5.57;3.47;;;18.40;79.00;;;-142.21;100.00;112049.66;5135200;27;20433;-80
2022/09/16 07:11:14;;;;;;;5.13;4.00;;;18.40;79.40;;;-142.21;100.00;112049.66;5135243;27;20455;-79
2022/09/16 07:13:41;;;;;;;5.47;4.03;;;18.50;79.50;;;-142.21;100.00;112049.66;5128755;27;20467;-79
2022/09/16 07:16:11;;;;;;;4.03;3.60;;;18.50;78.50;;;-142.21;100.00;112049.66;5134104;27;20515;-79
2022/09/16 07:18:39;;;;;;;4.00;3.60;;;18.50;78.90;;;-142.21;100.00;112049.66;5134411;27;20448;-79
2022/09/16 07:21:14;;;;;;;6.23;3.77;;;18.50;78.60;;;-142.21;100.00;112049.66;5136019;27;20472;-80
2022/09/16 07:23:43;;;;;;;4.00;3.60;;;18.50;79.40;;;-142.21;100.00;112049.66;5135000;27;20428;-79
2022/09/16 07:26:14;;;;;;;5.97;4.07;;;18.50;79.30;;;-142.21;100.00;112049.66;5135531;27;20437;-79
2022/09/16 07:28:45;;;;;;;5.00;4.00;;;18.50;80.80;;;-142.21;100.00;112049.66;5135131;27;20425;-79
2022/09/16 07:31:14;;;;;;;7.37;4.50;;;18.60;80.10;;;-142.21;100.00;112049.66;5134781;27;20484;-80
2022/09/16 07:33:46;;;;;;;5.00;4.50;;;18.60;80.20;;;-142.21;100.00;112049.66;5134541;27;20498;-80
2022/09/16 07:36:18;;;;;;;7.13;4.73;;;18.70;80.40;;;-142.21;100.00;112049.66;5134908;27;20559;-80
2022/09/16 07:38:46;;;;;;;7.03;3.90;;;18.60;79.40;;;-142.21;100.00;112049.66;5128911;27;20219;-80
2022/09/16 07:41:17;;;;;;;5.23;3.97;;;18.60;79.10;;;-142.21;100.00;112049.66;5134697;27;20488;-80
2022/09/16 07:43:45;;;;;;;5.73;4.57;;;18.70;79.10;;;-142.21;100.00;112049.66;5133736;27;20440;-81
2022/09/16 07:46:16;;;;;;;4.40;3.57;;;18.80;78.40;;;-142.21;100.00;112049.66;5134709;27;20436;-79
2022/09/16 07:48:45;;;;;;;8.00;3.80;;;18.80;77.60;;;-142.21;100.00;112049.66;5116915;27;20525;-80
2022/09/16 07:51:15;;;;;;;6.57;4.10;;;18.80;78.70;;;-142.21;100.00;112049.66;5135035;27;20522;-80
2022/09/16 07:53:43;;;;;;;7.07;4.27;;;18.80;78.50;;;-142.21;100.00;112049.66;5133651;27;20440;-80
2022/09/16 07:56:15;;;;;;;7.03;4.00;;;18.80;79.00;;;-142.21;100.00;112049.66;5134145;27;20969;-80
2022/09/16 07:58:44;;;;;;;4.73;4.13;;;18.90;79.10;;;-142.21;100.00;112049.66;5133206;27;20436;-80
2022/09/16 08:01:15;;;;;;;5.73;3.67;;;18.90;78.60;;;-142.21;100.00;112049.66;5133855;27;20634;-80
2022/09/16 08:03:45;;;;;;;4.83;4.10;;;18.90;78.90;;;-142.21;100.00;112049.66;5133311;27;20437;-80
2022/09/16 08:06:14;;;;;;;6.10;3.93;;;18.90;79.20;;;-142.21;100.00;112049.66;5134405;27;20248;-78
2022/09/16 08:08:43;;;;;;;6.90;4.23;;;18.80;78.20;;;-142.21;100.00;112049.66;5133685;27;20211;-79
2022/09/16 08:11:11;;;;;;;6.03;4.40;;;18.80;79.40;;;-142.21;100.00;112049.66;5134285;27;20203;-80
2022/09/16 08:13:42;;;;;;;5.97;4.30;;;18.90;79.00;;;-142.21;100.00;112049.66;5133319;27;20564;-79
2022/09/16 08:16:13;;;;;;;5.80;4.10;;;18.90;78.80;;;-142.21;100.00;112049.66;5134102;27;20465;-80
2022/09/16 08:18:42;;;;;;;6.73;4.37;;;18.70;79.20;;;-142.21;100.00;112049.66;5133818;27;20195;-79
2022/09/16 08:21:13;;;;;;;6.63;4.53;;;18.70;79.10;;;-142.21;100.00;112049.66;5134149;27;20452;-81
2022/09/16 08:23:41;;;;;;;4.70;4.20;;;18.70;79.50;;;-142.21;100.00;112049.66;5133427;27;20648;-79
2022/09/16 08:26:11;;;;;;;7.13;4.43;;;18.70;79.50;;;-142.21;100.00;112049.66;5134348;27;20437;-80
2022/09/16 08:28:41;;;;;;;4.77;3.73;;;18.50;78.90;;;-142.21;100.00;112049.66;5133411;27;20776;-80
2022/09/16 08:31:09;;;;;;;4.53;3.73;;;18.60;79.50;;;-142.21;100.00;112049.66;5133760;27;20563;-80
2022/09/16 08:33:39;;;;;;;5.43;4.33;;;18.60;78.60;;;-142.21;100.00;112049.66;5126627;27;20531;-80
2022/09/16 08:36:13;;;;;;;6.37;4.70;;;18.60;78.80;;;-142.21;100.00;112049.66;5134176;27;20498;-81
2022/09/16 08:38:40;;;;;;;6.00;4.40;;;18.60;79.70;;;-142.21;100.00;112049.66;5133039;27;20445;-79
2022/09/16 08:41:26;;;;;;;6.53;4.90;;;18.60;79.60;;;-142.21;100.00;112049.66;5134221;27;20440;-80
2022/09/16 08:44:13;;;;;;;4.37;3.80;;;18.60;79.40;;;-142.21;100.00;112049.66;5132971;27;20485;-80
2022/09/16 08:46:50;;;;;;;5.47;3.80;;;18.60;79.50;;;-142.21;100.00;112049.66;5123433;27;20432;-81
2022/09/16 08:49:34;;;;;;;5.10;3.80;;;18.70;79.50;;;-142.21;100.00;112049.66;5133700;27;20939;-80
2022/09/16 08:52:13;;;;;;;4.67;3.67;;;18.60;79.60;;;-142.21;100.00;112049.66;5113752;28;20767;-80
2022/09/16 08:54:47;;;;;;;6.07;4.10;;;18.50;78.60;;;-142.21;100.00;112049.66;5131123;27;20520;-80
2022/09/16 08:57:21;;;;;;;7.30;3.90;;;18.40;78.80;;;-142.21;100.00;112049.66;5133580;27;20470;-80
2022/09/16 08:59:57;;;;;;;6.43;4.13;;;18.30;79.40;;;-142.21;100.00;112049.66;5133053;27;20433;-81
2022/09/16 09:02:38;;;;;;;4.00;3.60;;;18.20;80.10;;;-142.21;100.00;112049.66;5133229;27;20455;-80
2022/09/16 09:05:18;;;;;;;5.60;3.80;;;18.20;79.90;;;-142.21;100.00;112049.66;5133078;27;21004;-78
2022/09/16 09:08:12;;;;;;;7.50;4.10;;;18.20;80.50;;;-142.21;100.00;112049.66;5132745;27;20444;-77
2022/09/16 09:10:51;;;;;;;4.20;3.80;;;18.30;81.30;;;-142.21;100.00;112049.66;5112379;28;20410;-81
2022/09/16 09:13:41;;;;;;;5.67;3.83;;;18.40;80.40;;;-142.21;100.00;112049.66;5123958;27;20429;-82
2022/09/16 09:16:21;;;;;;;5.40;3.63;;;18.50;79.60;;;-142.21;100.00;112049.66;5112718;28;20973;-81
2022/09/16 09:19:04;;;;;;;6.13;3.37;;;18.60;79.60;;;-142.21;100.00;112049.66;5112179;28;20878;-79
2022/09/16 09:21:44;;;;;;;4.83;2.93;;;18.50;79.00;;;-142.21;100.00;112049.66;5133446;27;20476;-81
2022/09/16 09:24:38;;;;;;;5.23;3.37;;;18.60;79.00;;;-142.21;100.00;112049.66;5132473;27;20774;-80
2022/09/16 09:27:15;;;;;;;5.90;4.17;;;18.70;78.80;;;-142.21;100.00;112049.66;5132079;27;20932;-81
2022/09/16 09:30:09;;;;;;;4.57;4.00;;;18.60;79.30;;;-142.21;100.00;112049.66;5132669;27;20429;-76
2022/09/16 09:33:20;;;;;;;4.67;3.70;;;18.60;79.70;;;-142.21;100.00;112049.66;5111904;28;20469;-77
2022/09/16 09:36:14;;;;;;;4.73;4.20;;;18.60;79.70;;;-142.21;100.00;112049.66;5130661;27;20537;-78
2022/09/16 09:39:35;;;;;;;4.20;3.40;;;18.70;79.60;;;-142.21;100.00;112049.66;5132236;27;20511;-77
2022/09/16 09:42:15;;;;;;;4.37;3.77;;;18.60;79.20;;;-142.21;100.00;112049.66;5132786;27;20439;-78
2022/09/16 09:44:55;;;;;;;4.87;4.00;;;18.60;79.10;;;-142.21;100.00;112049.66;5120693;27;20444;-79
2022/09/16 09:47:29;;;;;;;4.57;3.60;;;18.60;79.50;;;-142.21;100.00;112049.66;5132925;27;20476;-81
2022/09/16 09:50:12;;;;;;;5.37;3.57;;;18.70;79.70;;;-142.21;100.00;112049.66;5132760;27;20419;-80
2022/09/16 09:52:51;;;;;;;5.83;3.60;;;18.70;78.80;;;-142.21;100.00;112049.66;5131956;27;20412;-77
2022/09/16 09:55:32;;;;;;;4.70;3.90;;;18.60;79.10;;;-142.21;100.00;112049.66;5132145;27;20492;-81
2022/09/16 09:58:24;;;;;;;3.80;3.40;;;18.60;79.00;;;-142.21;100.00;112049.66;5132840;27;20464;-80
2022/09/16 10:00:54;;;;;;;4.53;3.40;;;18.50;79.10;;;-142.21;100.00;112049.66;5133017;27;20453;-76
2022/09/16 10:03:22;;;;;;;3.97;3.60;;;18.40;78.50;;;-142.21;100.00;112049.66;5132655;27;20917;-81
2022/09/16 10:05:51;;;;;;;7.87;3.80;;;18.40;79.10;;;-142.21;100.00;112049.66;5131417;28;20476;-76
2022/09/16 10:08:27;;;;;;;4.13;3.40;;;18.40;79.20;;;-142.21;100.00;112049.66;5132867;28;20484;-77
2022/09/16 10:10:57;;;;;;;7.57;3.40;;;18.60;79.10;;;-142.21;100.00;112049.66;5132463;28;20454;-77
2022/09/16 10:13:28;;;;;;;3.70;3.37;;;18.60;78.80;;;-142.21;100.00;112049.66;5132297;28;20991;-77
2022/09/16 10:16:12;;;;;;;5.90;3.80;;;18.60;78.20;;;-142.21;100.00;112049.66;5132548;28;20457;-77
2022/09/16 10:18:40;;;;;;;5.03;3.57;;;18.60;78.90;;;-142.21;100.00;112049.66;5131766;28;20473;-78